createdAt,value
2019-05-11T00:01:42.718Z,4.97
2019-05-11T00:04:14.702Z,5.27
2019-05-11T00:06:46.872Z,5.70
2019-05-11T00:09:18.875Z,6.10
2019-05-11T00:11:50.825Z,6.20
2019-05-11T00:14:22.915Z,5.40
2019-05-11T00:16:55.493Z,5.33
2019-05-11T00:19:27.478Z,6.13
2019-05-11T00:21:59.441Z,6.80
2019-05-11T00:24:31.438Z,6.50
2019-05-11T00:27:03.415Z,5.87
2019-05-11T00:29:35.407Z,5.40
2019-05-11T00:32:07.415Z,4.90
2019-05-11T00:34:39.405Z,5.90
2019-05-11T00:37:11.372Z,5.50
2019-05-11T00:39:43.377Z,7.10
2019-05-11T00:42:15.608Z,6.83
2019-05-11T00:44:47.572Z,7.07
2019-05-11T00:47:19.540Z,6.90
2019-05-11T00:49:51.577Z,6.30
2019-05-11T00:52:23.539Z,6.73
2019-05-11T00:54:55.521Z,6.50
2019-05-11T00:57:27.564Z,6.10
2019-05-11T00:59:59.522Z,6.23
2019-05-11T01:02:31.478Z,6.07
2019-05-11T01:05:03.706Z,6.50
2019-05-11T01:07:35.695Z,6.03
2019-05-11T01:10:21.776Z,7.43
2019-05-11T01:12:41.831Z,5.57
2019-05-11T01:15:13.781Z,5.77
2019-05-11T01:17:45.767Z,6.07
2019-05-11T01:20:18.738Z,6.83
2019-05-11T01:22:50.889Z,6.80
2019-05-11T01:25:22.870Z,7.67
2019-05-11T01:27:54.828Z,6.83
2019-05-11T01:30:26.807Z,6.53
2019-05-11T01:32:58.764Z,6.27
2019-05-11T01:35:30.732Z,5.60
2019-05-11T01:38:02.827Z,5.60
2019-05-11T01:40:34.844Z,5.27
2019-05-11T01:43:06.796Z,5.33
2019-05-11T01:45:38.768Z,4.70
2019-05-11T01:48:10.764Z,5.07
2019-05-11T01:50:42.734Z,5.17
2019-05-11T01:53:14.722Z,5.20
2019-05-11T01:55:46.668Z,4.80
2019-05-11T01:58:18.665Z,4.63
2019-05-11T02:00:50.640Z,4.70
2019-05-11T02:03:22.615Z,5.30
2019-05-11T02:05:54.543Z,4.43
2019-05-11T02:08:26.550Z,5.10
2019-05-11T02:11:13.784Z,5.07
2019-05-11T02:13:32.369Z,5.07
2019-05-11T02:16:04.649Z,5.13
2019-05-11T02:18:36.628Z,5.30
2019-05-11T02:21:08.580Z,5.10
2019-05-11T02:23:40.572Z,5.17
2019-05-11T02:26:12.543Z,5.20
2019-05-11T02:28:44.877Z,5.07
2019-05-11T02:31:16.860Z,5.23
2019-05-11T02:33:48.813Z,5.50
2019-05-11T02:36:20.804Z,5.73
2019-05-11T02:38:52.771Z,5.63
2019-05-11T02:41:35.382Z,5.70
2019-05-11T02:43:58.619Z,5.93
2019-05-11T02:46:30.593Z,5.67
2019-05-11T02:49:02.587Z,5.90
2019-05-11T02:51:34.866Z,6.03
2019-05-11T02:54:07.845Z,5.97
2019-05-11T02:56:39.770Z,6.67
2019-05-11T02:59:11.793Z,6.87
2019-05-11T03:01:43.740Z,6.60
2019-05-11T03:04:15.733Z,6.23
2019-05-11T03:06:47.783Z,6.33
2019-05-11T03:09:19.879Z,5.77
2019-05-11T03:11:55.408Z,5.97
2019-05-11T03:14:25.712Z,6.20
2019-05-11T03:17:17.346Z,6.20
2019-05-11T03:19:49.327Z,5.20
2019-05-11T03:22:21.286Z,5.27
2019-05-11T03:24:53.279Z,4.83
2019-05-11T03:27:25.266Z,5.03
2019-05-11T03:30:00.727Z,5.23
2019-05-11T03:32:31.295Z,5.30
2019-05-11T03:35:04.400Z,5.47
2019-05-11T03:37:36.349Z,5.93
2019-05-11T03:40:08.560Z,5.60
2019-05-11T03:42:40.512Z,6.77
2019-05-11T03:45:12.997Z,5.50
2019-05-11T03:47:45.073Z,5.87
2019-05-11T03:50:17.087Z,5.10
2019-05-11T03:52:49.053Z,5.30
2019-05-11T03:55:21.059Z,4.87
2019-05-11T03:57:53.013Z,5.23
2019-05-11T04:00:25.040Z,5.67
2019-05-11T04:02:57.002Z,5.30
2019-05-11T04:05:29.062Z,5.00
2019-05-11T04:08:00.984Z,4.70
2019-05-11T04:10:32.968Z,4.80
2019-05-11T04:13:04.954Z,4.47
2019-05-11T04:15:36.923Z,5.43
2019-05-11T04:18:08.867Z,5.63
2019-05-11T04:20:40.823Z,5.50
2019-05-11T04:23:12.865Z,5.83
2019-05-11T04:25:44.820Z,6.33
2019-05-11T04:28:16.811Z,5.60
2019-05-11T04:30:48.767Z,6.43
2019-05-11T04:33:20.746Z,6.90
2019-05-11T04:35:52.726Z,6.80
2019-05-11T04:38:24.717Z,6.33
2019-05-11T04:40:56.676Z,6.27
2019-05-11T04:43:28.716Z,5.90
2019-05-11T04:46:00.669Z,6.57
2019-05-11T04:48:32.638Z,5.50
2019-05-11T04:51:04.597Z,5.27
2019-05-11T04:53:36.587Z,5.70
2019-05-11T04:56:08.571Z,5.77
2019-05-11T04:58:40.549Z,5.47
2019-05-11T05:01:12.502Z,4.57
2019-05-11T05:03:47.566Z,4.67
2019-05-11T05:06:24.030Z,5.00
2019-05-11T05:08:52.272Z,5.00
2019-05-11T05:11:24.240Z,5.13
2019-05-11T05:13:56.239Z,7.17
2019-05-11T05:16:31.287Z,5.83
2019-05-11T05:19:02.106Z,5.50
2019-05-11T05:21:34.089Z,4.40
2019-05-11T05:24:06.069Z,4.53
2019-05-11T05:26:38.024Z,5.00
2019-05-11T05:29:10.015Z,5.70
2019-05-11T05:31:41.966Z,5.60
2019-05-11T05:34:13.955Z,6.30
2019-05-11T05:36:45.941Z,6.53
2019-05-11T05:39:17.898Z,5.30
2019-05-11T05:41:57.038Z,5.87
2019-05-11T05:44:27.517Z,5.90
2019-05-11T05:46:57.690Z,5.80
2019-05-11T05:49:29.645Z,7.13
2019-05-11T05:52:01.648Z,7.63
2019-05-11T05:54:33.662Z,7.40
2019-05-11T05:57:05.743Z,6.27
2019-05-11T05:59:37.729Z,5.10
2019-05-11T06:02:09.699Z,5.37
2019-05-11T06:04:41.713Z,4.40
2019-05-11T06:07:13.984Z,3.73
2019-05-11T06:09:45.977Z,3.43
2019-05-11T06:12:17.947Z,3.10
2019-05-11T06:14:49.939Z,3.70
2019-05-11T06:17:21.970Z,3.43
2019-05-11T06:19:53.953Z,2.87
2019-05-11T06:22:25.978Z,3.60
2019-05-11T06:24:58.009Z,3.30
2019-05-11T06:27:29.960Z,3.30
2019-05-11T06:30:01.966Z,3.53
2019-05-11T06:32:33.956Z,4.13
2019-05-11T06:35:06.397Z,3.50
2019-05-11T06:37:38.387Z,4.03
2019-05-11T06:40:10.387Z,3.50
2019-05-11T06:42:42.397Z,3.27
2019-05-11T06:45:14.357Z,3.30
2019-05-11T06:47:46.358Z,2.83
2019-05-11T06:50:18.456Z,3.03
2019-05-11T06:52:50.434Z,3.57
2019-05-11T06:55:22.383Z,3.43
2019-05-11T06:57:54.386Z,3.27
2019-05-11T07:00:26.352Z,3.30
2019-05-11T07:02:58.335Z,3.70
2019-05-11T07:05:30.323Z,3.20
2019-05-11T07:08:02.322Z,3.60
2019-05-11T07:10:34.271Z,3.10
2019-05-11T07:13:06.265Z,3.60
2019-05-11T07:15:38.204Z,3.40
2019-05-11T07:18:10.332Z,2.80
2019-05-11T07:20:50.678Z,2.90
2019-05-11T07:23:16.166Z,2.35
2019-05-11T07:25:48.144Z,2.40
2019-05-11T07:28:20.143Z,2.67
2019-05-11T07:30:52.282Z,2.10
2019-05-11T07:33:24.219Z,1.95
2019-05-11T07:35:58.309Z,2.05
2019-05-11T07:38:30.077Z,2.05
2019-05-11T07:41:02.142Z,2.05
2019-05-11T07:43:34.147Z,1.98
2019-05-11T07:46:07.774Z,1.90
2019-05-11T07:48:40.051Z,2.17
2019-05-11T07:51:12.003Z,2.02
2019-05-11T07:53:44.015Z,1.92
2019-05-11T07:56:18.521Z,1.55
2019-05-11T07:58:49.939Z,1.85
2019-05-11T08:01:21.881Z,1.70
2019-05-11T08:03:53.865Z,1.50
2019-05-11T08:06:28.323Z,1.90
2019-05-11T08:08:59.787Z,1.90
2019-05-11T08:11:31.738Z,1.60
2019-05-11T08:14:03.817Z,1.67
2019-05-11T08:16:38.698Z,1.98
2019-05-11T08:19:10.755Z,1.87
2019-05-11T08:21:43.002Z,1.65
2019-05-11T08:24:14.995Z,2.05
2019-05-11T08:26:48.007Z,1.77
2019-05-11T08:29:20.183Z,1.80
2019-05-11T08:31:52.160Z,1.67
2019-05-11T08:34:24.145Z,1.98
2019-05-11T08:36:58.226Z,1.70
2019-05-11T08:39:30.022Z,1.87
2019-05-11T08:42:03.361Z,1.72
2019-05-11T08:44:37.829Z,1.90
2019-05-11T08:47:09.368Z,1.92
2019-05-11T08:49:41.433Z,1.67
2019-05-11T08:52:13.395Z,1.72
2019-05-11T08:54:45.395Z,1.85
2019-05-11T08:57:18.022Z,1.87
2019-05-11T08:59:50.065Z,1.90
2019-05-11T09:02:22.018Z,1.80
2019-05-11T09:04:54.010Z,1.80
2019-05-11T09:07:27.843Z,1.92
2019-05-11T09:09:59.951Z,1.82
2019-05-11T09:12:31.943Z,1.60
2019-05-11T09:15:04.760Z,1.60
2019-05-11T09:17:38.159Z,1.60
2019-05-11T09:20:10.763Z,1.85
2019-05-11T09:22:42.804Z,1.65
2019-05-11T09:25:14.972Z,1.70
2019-05-11T09:27:48.198Z,1.32
2019-05-11T09:30:20.933Z,1.40
2019-05-11T09:32:52.949Z,1.22
2019-05-11T09:35:24.922Z,1.60
2019-05-11T09:37:58.729Z,1.82
2019-05-11T09:40:30.840Z,1.70
2019-05-11T09:43:02.819Z,1.90
2019-05-11T09:45:47.488Z,1.85
2019-05-11T09:48:08.775Z,1.60
2019-05-11T09:50:40.815Z,1.20
2019-05-11T09:53:12.799Z,1.30
2019-05-11T09:55:44.891Z,1.52
2019-05-11T09:58:19.680Z,1.42
2019-05-11T10:00:50.806Z,1.45
2019-05-11T10:03:23.200Z,1.27
2019-05-11T10:05:55.185Z,1.80
2019-05-11T10:08:28.667Z,1.45
2019-05-11T10:11:02.207Z,1.60
2019-05-11T10:13:34.212Z,1.80
2019-05-11T10:16:08.145Z,1.40
2019-05-11T10:18:40.053Z,1.55
2019-05-11T10:21:12.013Z,1.70
2019-05-11T10:23:44.048Z,1.30
2019-05-11T10:26:18.421Z,1.62
2019-05-11T10:28:50.004Z,1.82
2019-05-11T10:31:22.069Z,1.30
2019-05-11T10:33:54.071Z,1.47
2019-05-11T10:36:28.016Z,1.50
2019-05-11T10:38:59.985Z,1.60
2019-05-11T10:41:31.959Z,1.40
2019-05-11T10:44:03.957Z,1.30
2019-05-11T10:46:38.046Z,1.40
2019-05-11T10:49:09.917Z,1.70
2019-05-11T10:51:41.881Z,1.30
2019-05-11T10:54:13.902Z,1.27
2019-05-11T10:56:48.096Z,1.32
2019-05-11T10:59:19.777Z,1.60
2019-05-11T11:01:51.738Z,1.30
2019-05-11T11:04:23.760Z,1.45
2019-05-11T11:06:55.792Z,1.42
2019-05-11T11:09:28.339Z,1.20
2019-05-11T11:12:00.592Z,1.25
2019-05-11T11:14:32.557Z,1.20
2019-05-11T11:17:04.789Z,1.15
2019-05-11T11:19:38.101Z,1.07
2019-05-11T11:22:33.261Z,1.10
2019-05-11T11:24:44.224Z,1.20
2019-05-11T11:27:18.083Z,1.02
2019-05-11T11:29:50.140Z,1.15
2019-05-11T11:32:22.195Z,1.32
2019-05-11T11:34:54.193Z,1.20
2019-05-11T11:37:28.090Z,1.55
2019-05-11T11:40:00.072Z,2.33
2019-05-11T11:42:32.073Z,1.70
2019-05-11T11:45:08.024Z,1.10
2019-05-11T11:47:40.142Z,1.20
2019-05-11T11:50:12.723Z,1.20
2019-05-11T11:52:45.156Z,1.20
2019-05-11T11:55:18.570Z,1.12
2019-05-11T11:57:50.823Z,1.12
2019-05-11T12:00:22.951Z,1.10
2019-05-11T12:02:54.932Z,1.10
2019-05-11T12:05:28.318Z,1.27
2019-05-11T12:08:00.544Z,1.15
2019-05-11T12:10:32.538Z,1.20
2019-05-11T12:13:04.546Z,1.20
2019-05-11T12:15:38.580Z,1.20
2019-05-11T12:18:10.477Z,1.10
2019-05-11T12:20:43.051Z,1.10
2019-05-11T12:23:15.082Z,1.00
2019-05-11T12:25:48.698Z,1.10
2019-05-11T12:28:20.975Z,1.37
2019-05-11T12:30:52.947Z,1.20
2019-05-11T12:33:25.119Z,1.10
2019-05-11T12:35:58.711Z,1.37
2019-05-11T12:38:30.877Z,1.37
2019-05-11T12:41:02.887Z,1.07
2019-05-11T12:43:34.898Z,1.40
2019-05-11T12:46:08.012Z,1.47
2019-05-11T12:48:40.466Z,2.12
2019-05-11T12:51:12.434Z,2.20
2019-05-11T12:53:44.484Z,2.12
2019-05-11T12:56:18.713Z,1.30
2019-05-11T12:58:50.389Z,1.45
2019-05-11T13:01:22.363Z,1.30
2019-05-11T13:03:54.393Z,1.37
2019-05-11T13:06:27.908Z,1.30
2019-05-11T13:09:00.102Z,1.20
2019-05-11T13:11:32.143Z,1.15
2019-05-11T13:14:04.165Z,1.20
2019-05-11T13:16:37.855Z,1.00
2019-05-11T13:19:10.017Z,0.98
2019-05-11T13:21:42.046Z,1.40
2019-05-11T13:24:14.112Z,1.10
2019-05-11T13:26:48.376Z,1.10
2019-05-11T13:29:20.046Z,1.10
2019-05-11T13:31:52.318Z,0.95
2019-05-11T13:34:24.327Z,1.12
2019-05-11T13:36:57.508Z,1.22
2019-05-11T13:39:29.742Z,0.90
2019-05-11T13:42:01.748Z,1.10
2019-05-11T13:44:33.741Z,1.30
2019-05-11T13:47:05.780Z,1.05
2019-05-11T13:49:37.951Z,1.30
2019-05-11T13:52:09.917Z,1.32
2019-05-11T13:54:41.886Z,1.30
2019-05-11T13:57:13.956Z,1.25
2019-05-11T13:59:47.692Z,1.15
2019-05-11T14:02:19.894Z,1.20
2019-05-11T14:04:51.915Z,1.35
2019-05-11T14:07:23.960Z,1.32
2019-05-11T14:09:55.930Z,1.30
2019-05-11T14:12:28.567Z,1.40
2019-05-11T14:15:00.746Z,2.00
2019-05-11T14:17:32.832Z,2.20
2019-05-11T14:20:04.896Z,1.72
2019-05-11T14:22:38.656Z,1.70
2019-05-11T14:25:10.837Z,1.70
2019-05-11T14:27:42.979Z,1.57
2019-05-11T14:30:15.082Z,1.97
2019-05-11T14:32:47.766Z,1.80
2019-05-11T14:35:19.953Z,1.47
2019-05-11T14:37:51.986Z,1.80
2019-05-11T14:40:24.022Z,2.07
2019-05-11T14:42:58.063Z,1.53
2019-05-11T14:45:30.040Z,1.60
2019-05-11T14:48:02.046Z,2.70
2019-05-11T14:50:34.125Z,1.80
2019-05-11T14:53:08.440Z,1.70
2019-05-11T14:55:40.060Z,1.73
2019-05-11T14:58:12.074Z,2.50
2019-05-11T15:00:44.133Z,2.33
2019-05-11T15:03:18.243Z,2.20
2019-05-11T15:05:50.099Z,1.83
2019-05-11T15:08:22.138Z,2.60
2019-05-11T15:10:54.169Z,2.20
2019-05-11T15:13:26.195Z,2.47
2019-05-11T15:15:58.675Z,2.70
2019-05-11T15:18:38.662Z,2.10
2019-05-11T15:21:04.771Z,2.10
2019-05-11T15:23:37.817Z,1.90
2019-05-11T15:26:10.222Z,1.20
2019-05-11T15:28:42.198Z,1.30
2019-05-11T15:31:14.208Z,1.13
2019-05-11T15:33:48.630Z,1.60
2019-05-11T15:36:20.153Z,2.40
2019-05-11T15:38:52.151Z,3.60
2019-05-11T15:41:24.223Z,2.00
2019-05-11T15:43:57.949Z,2.00
2019-05-11T15:46:30.208Z,2.27
2019-05-11T15:49:03.574Z,2.23
2019-05-11T15:51:38.299Z,2.50
2019-05-11T15:54:09.658Z,5.00
2019-05-11T15:56:41.694Z,3.17
2019-05-11T15:59:13.723Z,7.07
2019-05-11T16:01:48.906Z,6.23
2019-05-11T16:04:20.482Z,3.60
2019-05-11T16:06:52.533Z,2.50
2019-05-11T16:09:24.577Z,2.00
2019-05-11T16:11:56.602Z,2.80
2019-05-11T16:14:28.596Z,1.80
2019-05-11T16:17:00.616Z,2.87
2019-05-11T16:19:32.607Z,3.47
2019-05-11T16:22:04.633Z,1.70
2019-05-11T16:24:39.831Z,2.07
2019-05-11T16:27:10.503Z,1.83
2019-05-11T16:29:42.506Z,1.57
2019-05-11T16:32:14.535Z,1.67
2019-05-11T16:34:46.548Z,1.93
2019-05-11T16:37:18.614Z,1.60
2019-05-11T16:39:50.558Z,1.60
2019-05-11T16:42:22.591Z,1.70
2019-05-11T16:44:54.567Z,1.70
2019-05-11T16:47:28.482Z,1.93
2019-05-11T16:50:00.505Z,1.40
2019-05-11T16:52:32.486Z,1.60
2019-05-11T16:55:04.594Z,1.80
2019-05-11T16:57:38.196Z,1.70
2019-05-11T17:00:10.406Z,1.90
2019-05-11T17:02:42.436Z,2.13
2019-05-11T17:05:25.861Z,2.43
2019-05-11T17:07:48.537Z,2.90
2019-05-11T17:10:20.550Z,2.50
2019-05-11T17:12:52.578Z,2.33
2019-05-11T17:15:24.588Z,1.90
2019-05-11T17:17:58.562Z,2.20
2019-05-11T17:20:30.567Z,2.27
2019-05-11T17:23:02.633Z,2.50
2019-05-11T17:25:34.662Z,2.40
2019-05-11T17:28:09.747Z,2.33
2019-05-11T17:30:40.634Z,2.13
2019-05-11T17:33:12.662Z,2.00
2019-05-11T17:35:44.722Z,2.20
2019-05-11T17:38:18.435Z,2.00
2019-05-11T17:40:50.505Z,2.00
2019-05-11T17:43:22.609Z,2.37
2019-05-11T17:45:54.577Z,2.50
2019-05-11T17:48:28.199Z,1.90
2019-05-11T17:51:00.408Z,2.00
2019-05-11T17:53:32.475Z,12.77
2019-05-11T17:56:04.511Z,9.53
2019-05-11T17:58:37.863Z,4.70
2019-05-11T18:01:10.060Z,5.00
2019-05-11T18:03:42.114Z,4.90
2019-05-11T18:06:14.136Z,4.20
2019-05-11T18:08:47.912Z,5.30
2019-05-11T18:11:20.082Z,5.90
2019-05-11T18:13:52.078Z,5.60
2019-05-11T18:16:24.088Z,4.40
2019-05-11T18:18:56.069Z,5.20
2019-05-11T18:21:28.155Z,3.27
2019-05-11T18:24:00.178Z,2.90
2019-05-11T18:26:32.216Z,2.33
2019-05-11T18:29:04.206Z,3.67
2019-05-11T18:31:38.354Z,13.07
2019-05-11T18:34:10.374Z,9.57
2019-05-11T18:36:42.526Z,6.80
2019-05-11T18:39:14.684Z,4.77
2019-05-11T18:41:48.436Z,4.47
2019-05-11T18:44:20.543Z,3.93
2019-05-11T18:46:52.543Z,3.77
2019-05-11T18:49:24.833Z,3.67
2019-05-11T18:51:58.622Z,3.83
2019-05-11T18:54:30.768Z,3.83
2019-05-11T18:57:02.829Z,3.33
2019-05-11T18:59:34.922Z,3.47
2019-05-11T19:02:08.433Z,3.27
2019-05-11T19:04:40.767Z,3.47
2019-05-11T19:07:16.932Z,3.43
2019-05-11T19:09:48.533Z,3.00
2019-05-11T19:12:20.724Z,3.50
2019-05-11T19:14:52.755Z,7.00
2019-05-11T19:17:25.021Z,4.10
2019-05-11T19:19:57.996Z,3.23
2019-05-11T19:22:30.184Z,3.17
2019-05-11T19:25:02.193Z,3.20
2019-05-11T19:27:34.254Z,3.40
2019-05-11T19:30:07.986Z,3.00
2019-05-11T19:32:40.244Z,4.17
2019-05-11T19:35:12.274Z,3.57
2019-05-11T19:37:44.339Z,3.33
2019-05-11T19:40:16.349Z,3.67
2019-05-11T19:42:53.872Z,3.87
2019-05-11T19:45:29.061Z,3.70
2019-05-11T19:48:00.235Z,3.47
2019-05-11T19:50:32.252Z,3.20
2019-05-11T19:53:04.288Z,3.90
2019-05-11T19:55:36.314Z,3.87
2019-05-11T19:58:08.402Z,3.50
2019-05-11T20:00:40.474Z,3.23
2019-05-11T20:03:12.583Z,3.70
2019-05-11T20:05:44.693Z,3.43
2019-05-11T20:08:18.469Z,3.77
2019-05-11T20:10:50.766Z,3.87
2019-05-11T20:13:22.954Z,3.70
2019-05-11T20:15:55.072Z,3.40
2019-05-11T20:18:28.854Z,3.57
2019-05-11T20:21:15.101Z,3.50
2019-05-11T20:23:34.950Z,3.77
2019-05-11T20:26:08.915Z,3.40
2019-05-11T20:28:41.135Z,3.90
2019-05-11T20:31:13.202Z,3.50
2019-05-11T20:33:45.210Z,3.43
2019-05-11T20:36:17.782Z,3.30
2019-05-11T20:38:50.083Z,2.90
2019-05-11T20:41:22.118Z,3.10
2019-05-11T20:43:54.103Z,3.30
2019-05-11T20:46:27.720Z,3.77
2019-05-11T20:48:59.853Z,3.50
2019-05-11T20:51:36.615Z,3.77
2019-05-11T20:54:08.596Z,3.20
2019-05-11T20:56:39.811Z,3.43
2019-05-11T20:59:11.811Z,3.90
2019-05-11T21:01:43.805Z,4.10
2019-05-11T21:04:15.875Z,4.13
2019-05-11T21:06:47.911Z,3.90
2019-05-11T21:09:20.004Z,3.90
2019-05-11T21:11:52.011Z,3.60
2019-05-11T21:14:24.006Z,3.67
2019-05-11T21:16:58.599Z,3.40
2019-05-11T21:19:30.006Z,3.77
2019-05-11T21:22:02.008Z,3.80
2019-05-11T21:24:33.986Z,3.60
2019-05-11T21:27:06.001Z,3.20
2019-05-11T21:29:38.764Z,3.37
2019-05-11T21:32:10.948Z,3.20
2019-05-11T21:34:42.979Z,3.70
2019-05-11T21:37:15.024Z,3.63
2019-05-11T21:39:48.187Z,3.30
2019-05-11T21:42:20.309Z,3.50
2019-05-11T21:44:52.279Z,3.63
2019-05-11T21:47:24.327Z,3.80
2019-05-11T21:49:57.782Z,3.80
2019-05-11T21:52:29.853Z,3.70
2019-05-11T21:55:01.846Z,3.27
2019-05-11T21:57:33.853Z,3.30
2019-05-11T22:00:08.781Z,3.27
2019-05-11T22:02:40.985Z,3.00
2019-05-11T22:05:13.001Z,3.30
2019-05-11T22:07:44.986Z,3.27
2019-05-11T22:10:17.745Z,2.73
2019-05-11T22:12:50.012Z,3.47
2019-05-11T22:15:22.010Z,3.10
2019-05-11T22:17:54.103Z,3.33
2019-05-11T22:20:26.068Z,3.70
2019-05-11T22:22:59.827Z,3.23
2019-05-11T22:25:31.846Z,2.87
2019-05-11T22:28:03.866Z,3.33
2019-05-11T22:30:35.865Z,2.90
2019-05-11T22:33:08.782Z,3.60
2019-05-11T22:35:41.014Z,3.13
2019-05-11T22:38:13.046Z,3.13
2019-05-11T22:40:45.047Z,2.90
2019-05-11T22:43:18.182Z,3.47
2019-05-11T22:45:50.390Z,3.00
2019-05-11T22:48:22.422Z,3.50
2019-05-11T22:50:54.472Z,3.63
2019-05-11T22:53:43.385Z,3.10
2019-05-11T22:56:00.408Z,3.37
2019-05-11T22:58:32.387Z,3.20
2019-05-11T23:01:04.378Z,3.23
2019-05-11T23:03:38.300Z,3.67
2019-05-11T23:06:10.288Z,3.63
2019-05-11T23:08:42.274Z,3.37
2019-05-11T23:11:14.273Z,3.30
2019-05-11T23:13:47.837Z,3.00
2019-05-11T23:16:20.023Z,3.53
2019-05-11T23:18:51.984Z,3.30
2019-05-11T23:21:23.988Z,3.77
2019-05-11T23:23:58.199Z,3.20
2019-05-11T23:26:29.882Z,3.13
2019-05-11T23:29:01.861Z,3.40
2019-05-11T23:31:33.853Z,2.83
2019-05-11T23:34:07.954Z,3.33
2019-05-11T23:36:39.705Z,3.27
2019-05-11T23:39:11.668Z,3.10
2019-05-11T23:41:43.716Z,3.20
2019-05-11T23:44:17.813Z,3.43
2019-05-11T23:46:49.550Z,2.93
2019-05-11T23:49:21.545Z,3.53
2019-05-11T23:51:53.560Z,3.40
2019-05-11T23:54:27.700Z,3.37
2019-05-11T23:56:59.442Z,3.50
2019-05-11T23:59:31.411Z,3.40
